createdAt,value
2022-10-20T00:01:25.142Z,11.25
2022-10-20T00:03:53.366Z,10.85
2022-10-20T00:06:31.729Z,8.27
2022-10-20T00:09:02.649Z,7.10
2022-10-20T00:11:30.382Z,8.70
2022-10-20T00:13:58.809Z,13.32
2022-10-20T00:16:27.440Z,12.13
2022-10-20T00:18:56.031Z,9.07
2022-10-20T00:21:24.973Z,6.57
2022-10-20T00:23:53.489Z,12.27
2022-10-20T00:26:23.760Z,9.88
2022-10-20T00:28:52.049Z,8.25
2022-10-20T00:31:23.241Z,8.00
2022-10-20T00:33:52.585Z,9.02
2022-10-20T00:36:24.788Z,9.68
2022-10-20T00:38:57.870Z,8.07
2022-10-20T00:41:25.183Z,11.18
2022-10-20T00:43:59.653Z,8.45
2022-10-20T00:46:42.667Z,9.60
2022-10-20T00:49:26.704Z,8.40
2022-10-20T00:51:55.914Z,8.32
2022-10-20T00:54:27.672Z,8.70
2022-10-20T00:56:59.121Z,10.32
2022-10-20T00:59:34.928Z,9.18
2022-10-20T01:02:04.070Z,16.50
2022-10-20T01:04:33.595Z,13.90
2022-10-20T01:07:02.246Z,13.13
2022-10-20T01:09:29.219Z,12.95
2022-10-20T01:12:19.602Z,11.63
2022-10-20T01:15:13.074Z,10.63
2022-10-20T01:17:53.151Z,13.68
2022-10-20T01:21:05.458Z,10.55
2022-10-20T01:23:57.342Z,14.38
2022-10-20T01:27:00.737Z,13.93
2022-10-20T01:29:38.873Z,14.73
2022-10-20T01:32:50.285Z,13.43
2022-10-20T01:35:53.065Z,12.02
2022-10-20T01:38:40.603Z,12.80
2022-10-20T01:41:38.003Z,10.45
2022-10-20T01:44:09.986Z,12.85
2022-10-20T01:46:39.498Z,15.18
2022-10-20T01:49:08.100Z,20.42
2022-10-20T01:51:34.855Z,15.05
2022-10-20T01:54:02.869Z,14.02
2022-10-20T01:56:48.774Z,13.20
2022-10-20T01:59:35.343Z,15.73
2022-10-20T02:02:30.617Z,15.05
2022-10-20T02:05:36.101Z,16.63
2022-10-20T02:08:39.526Z,26.15
2022-10-20T02:11:11.469Z,19.55
2022-10-20T02:13:50.187Z,21.63
2022-10-20T02:16:22.093Z,23.30
2022-10-20T02:18:50.558Z,26.98
2022-10-20T02:21:17.710Z,29.08
2022-10-20T02:23:50.132Z,23.17
2022-10-20T02:26:20.358Z,24.08
2022-10-20T02:28:56.317Z,35.33
2022-10-20T02:31:24.552Z,37.25
2022-10-20T02:33:52.837Z,29.90
2022-10-20T02:36:25.471Z,34.05
2022-10-20T02:38:52.168Z,32.30
2022-10-20T02:41:19.256Z,34.08
2022-10-20T02:43:53.591Z,32.08
2022-10-20T02:46:20.704Z,31.13
2022-10-20T02:48:47.881Z,34.85
2022-10-20T02:51:15.485Z,29.63
2022-10-20T02:53:42.554Z,25.70
2022-10-20T02:56:09.899Z,25.05
2022-10-20T02:58:36.748Z,32.08
2022-10-20T03:01:04.447Z,27.35
2022-10-20T03:03:32.480Z,28.70
2022-10-20T03:06:06.941Z,24.45
2022-10-20T03:08:34.093Z,23.83
2022-10-20T03:11:02.317Z,18.98
2022-10-20T03:15:58.747Z,22.10
2022-10-20T03:18:38.823Z,20.13
2022-10-20T03:21:06.275Z,19.05
2022-10-20T03:23:33.206Z,21.52
2022-10-20T03:26:05.844Z,16.25
2022-10-20T03:28:34.428Z,24.30
2022-10-20T03:31:04.157Z,15.77
2022-10-20T03:33:32.116Z,17.40
2022-10-20T03:35:59.273Z,18.65
2022-10-20T03:38:27.434Z,19.92
2022-10-20T03:40:54.895Z,14.68
2022-10-20T03:43:21.790Z,16.77
2022-10-20T03:45:49.104Z,20.33
2022-10-20T03:48:15.996Z,20.30
2022-10-20T03:50:44.221Z,17.98
2022-10-20T03:53:14.486Z,19.25
2022-10-20T03:55:42.018Z,20.55
2022-10-20T03:58:11.755Z,17.52
2022-10-20T04:00:39.064Z,16.58
2022-10-20T04:03:05.791Z,19.10
2022-10-20T04:05:34.256Z,19.08
2022-10-20T04:08:01.554Z,16.75
2022-10-20T04:10:31.238Z,16.42
2022-10-20T04:13:00.145Z,20.75
2022-10-20T04:15:28.155Z,17.70
2022-10-20T04:18:01.399Z,20.65
2022-10-20T04:20:29.110Z,21.65
2022-10-20T04:23:03.690Z,21.30
2022-10-20T04:25:32.872Z,21.08
2022-10-20T04:28:06.743Z,20.90
2022-10-20T04:30:40.486Z,23.52
2022-10-20T04:33:09.164Z,18.25
2022-10-20T04:35:36.101Z,18.13
2022-10-20T04:38:15.647Z,19.75
2022-10-20T04:40:47.821Z,21.00
2022-10-20T04:43:15.875Z,23.00
2022-10-20T04:45:44.172Z,21.42
2022-10-20T04:48:10.963Z,19.30
2022-10-20T04:50:38.080Z,20.02
2022-10-20T04:53:05.929Z,17.05
2022-10-20T04:55:37.535Z,23.73
2022-10-20T04:58:04.309Z,21.25
2022-10-20T05:00:31.773Z,23.02
2022-10-20T05:02:59.411Z,21.52
2022-10-20T05:05:26.984Z,28.70
2022-10-20T05:07:57.025Z,23.30
2022-10-20T05:10:26.831Z,24.88
2022-10-20T05:12:58.850Z,27.77
2022-10-20T05:15:27.778Z,30.08
2022-10-20T05:17:58.140Z,24.10
2022-10-20T05:20:25.266Z,24.60
2022-10-20T05:22:54.813Z,26.20
2022-10-20T05:25:37.471Z,29.02
2022-10-20T05:28:05.752Z,23.77
2022-10-20T05:30:36.680Z,24.30
2022-10-20T05:33:13.779Z,23.45
2022-10-20T05:35:47.750Z,30.05
2022-10-20T05:41:19.168Z,32.50
2022-10-20T05:44:06.069Z,32.75
2022-10-20T05:46:38.803Z,30.55
2022-10-20T05:49:17.012Z,32.25
2022-10-20T05:51:45.645Z,27.10
2022-10-20T05:54:20.134Z,31.33
2022-10-20T05:56:51.903Z,32.60
2022-10-20T05:59:21.876Z,27.17
2022-10-20T06:01:58.716Z,27.27
2022-10-20T06:07:35.106Z,24.83
2022-10-20T06:10:07.021Z,26.67
2022-10-20T06:12:40.443Z,30.83
2022-10-20T06:15:17.660Z,28.83
2022-10-20T06:17:51.142Z,33.88
2022-10-20T06:20:20.811Z,33.40
2022-10-20T06:22:50.874Z,31.27
2022-10-20T06:25:21.250Z,32.33
2022-10-20T06:28:03.206Z,41.60
2022-10-20T06:30:43.039Z,36.08
2022-10-20T06:33:15.014Z,30.38
2022-10-20T06:36:02.334Z,26.10
2022-10-20T06:41:23.808Z,23.45
2022-10-20T06:44:06.870Z,20.20
2022-10-20T06:46:37.373Z,21.05
2022-10-20T06:49:14.960Z,19.20
2022-10-20T06:51:48.765Z,19.10
2022-10-20T06:54:17.973Z,19.65
2022-10-20T06:56:54.024Z,22.30
2022-10-20T07:02:11.777Z,18.67
2022-10-20T07:04:49.147Z,17.95
2022-10-20T07:07:29.518Z,18.88
2022-10-20T07:09:57.183Z,14.93
2022-10-20T07:12:26.433Z,18.25
2022-10-20T07:15:00.859Z,15.27
2022-10-20T07:17:28.004Z,20.58
2022-10-20T07:20:04.072Z,14.43
2022-10-20T07:22:46.595Z,12.52
2022-10-20T07:25:21.018Z,14.32
2022-10-20T07:27:49.673Z,15.95
2022-10-20T07:30:19.500Z,15.23
2022-10-20T07:32:48.261Z,12.35
2022-10-20T07:38:17.643Z,12.40
2022-10-20T07:40:44.989Z,16.17
2022-10-20T07:43:16.670Z,10.97
2022-10-20T07:45:47.554Z,13.60
2022-10-20T07:48:16.162Z,13.87
2022-10-20T07:50:56.691Z,9.80
2022-10-20T07:53:30.252Z,11.93
2022-10-20T07:56:00.013Z,11.00
2022-10-20T07:58:30.914Z,12.17
2022-10-20T08:00:58.724Z,10.23
2022-10-20T08:03:26.603Z,9.90
2022-10-20T08:06:00.886Z,14.57
2022-10-20T08:08:31.421Z,12.77
2022-10-20T08:10:58.439Z,8.87
2022-10-20T08:13:29.923Z,9.67
2022-10-20T08:15:57.069Z,9.93
2022-10-20T08:18:27.588Z,10.80
2022-10-20T08:21:23.812Z,10.00
2022-10-20T08:23:54.860Z,9.80
2022-10-20T08:26:32.249Z,10.77
2022-10-20T08:29:00.636Z,9.23
2022-10-20T08:31:29.225Z,8.00
2022-10-20T08:33:59.274Z,9.13
2022-10-20T08:36:28.513Z,10.57
2022-10-20T08:39:06.231Z,9.07
2022-10-20T08:42:07.390Z,11.37
2022-10-20T08:44:31.549Z,6.87
2022-10-20T08:47:05.454Z,8.70
2022-10-20T08:49:35.811Z,8.33
2022-10-20T08:52:04.255Z,8.30
2022-10-20T08:54:36.301Z,10.93
2022-10-20T08:57:05.707Z,7.07
2022-10-20T08:59:48.031Z,11.87
2022-10-20T09:02:17.146Z,13.48
2022-10-20T09:04:53.443Z,7.13
2022-10-20T09:07:25.240Z,10.13
2022-10-20T09:09:55.335Z,9.15
2022-10-20T09:12:26.422Z,11.68
2022-10-20T09:15:01.323Z,7.22
2022-10-20T09:17:29.069Z,7.55
2022-10-20T09:19:58.424Z,8.38
2022-10-20T09:22:33.359Z,8.35
2022-10-20T09:25:03.959Z,10.75
2022-10-20T09:27:42.404Z,4.72
2022-10-20T09:30:28.475Z,6.03
2022-10-20T09:32:55.240Z,5.72
2022-10-20T09:35:47.683Z,8.35
2022-10-20T09:38:19.671Z,9.25
2022-10-20T09:40:58.581Z,7.13
2022-10-20T09:43:27.016Z,4.78
2022-10-20T09:46:05.094Z,5.57
2022-10-20T09:48:35.433Z,5.45
2022-10-20T09:51:03.439Z,4.60
2022-10-20T09:53:37.120Z,4.47
2022-10-20T09:56:05.137Z,6.25
2022-10-20T10:01:18.816Z,5.95
2022-10-20T10:03:50.206Z,6.28
2022-10-20T10:06:30.194Z,5.75
2022-10-20T10:08:59.413Z,8.35
2022-10-20T10:11:36.164Z,4.88
2022-10-20T10:14:06.257Z,7.03
2022-10-20T10:16:43.659Z,6.60
2022-10-20T10:19:21.525Z,5.25
2022-10-20T10:21:57.834Z,2.95
2022-10-20T10:24:44.462Z,4.30
2022-10-20T10:27:32.229Z,4.93
2022-10-20T10:30:31.981Z,4.20
2022-10-20T10:32:58.906Z,2.88
2022-10-20T10:35:44.380Z,4.72
2022-10-20T10:38:15.321Z,7.38
2022-10-20T10:41:22.299Z,5.10
2022-10-20T10:44:04.869Z,4.13
2022-10-20T10:53:10.262Z,4.88
2022-10-20T10:56:03.853Z,3.83
2022-10-20T10:58:38.623Z,8.25
2022-10-20T11:01:35.560Z,10.80
2022-10-20T11:04:50.370Z,4.85
2022-10-20T11:07:43.928Z,3.25
2022-10-20T11:10:28.967Z,2.35
2022-10-20T11:13:24.522Z,4.75
2022-10-20T11:16:12.983Z,4.03
2022-10-20T11:19:01.372Z,3.85
2022-10-20T11:21:55.522Z,6.43
2022-10-20T11:24:36.220Z,5.63
2022-10-20T11:27:11.278Z,3.00
2022-10-20T11:29:57.862Z,5.53
2022-10-20T11:35:55.284Z,3.83
2022-10-20T11:38:53.999Z,2.90
2022-10-20T11:41:33.928Z,5.90
2022-10-20T11:44:47.458Z,2.38
2022-10-20T11:47:24.657Z,2.83
2022-10-20T11:50:02.198Z,3.42
2022-10-20T11:53:19.856Z,3.85
2022-10-20T11:56:03.622Z,4.20
2022-10-20T11:59:13.676Z,5.20
2022-10-20T12:02:25.273Z,4.75
2022-10-20T12:05:25.730Z,4.07
2022-10-20T12:14:03.760Z,4.20
2022-10-20T12:16:54.033Z,11.25
2022-10-20T12:19:30.548Z,7.63
2022-10-20T12:22:22.651Z,6.57
2022-10-20T12:24:54.038Z,5.72
2022-10-20T12:30:30.730Z,6.57
2022-10-20T12:33:17.839Z,4.18
2022-10-20T12:35:58.327Z,3.80
2022-10-20T12:38:26.075Z,6.13
2022-10-20T12:40:58.661Z,4.75
2022-10-20T12:43:50.576Z,5.68
2022-10-20T12:46:25.928Z,8.68
2022-10-20T12:49:00.251Z,7.53
2022-10-20T12:51:37.274Z,4.60
2022-10-20T12:54:15.482Z,3.95
2022-10-20T12:56:47.996Z,5.75
2022-10-20T12:59:29.905Z,5.22
2022-10-20T13:02:09.661Z,5.18
2022-10-20T13:05:07.964Z,6.25
2022-10-20T13:07:57.162Z,4.60
2022-10-20T13:10:41.248Z,5.40
2022-10-20T13:16:23.995Z,5.05
2022-10-20T13:18:53.979Z,3.15
2022-10-20T13:21:49.345Z,5.75
2022-10-20T13:24:42.741Z,5.85
2022-10-20T13:27:16.769Z,8.27
2022-10-20T13:29:52.754Z,4.88
2022-10-20T13:32:40.149Z,7.25
2022-10-20T13:35:33.507Z,8.85
2022-10-20T13:38:25.891Z,9.38
2022-10-20T13:41:11.469Z,5.85
2022-10-20T13:43:38.266Z,6.78
2022-10-20T13:46:40.741Z,8.25
2022-10-20T13:50:06.787Z,4.50
2022-10-20T13:52:45.908Z,6.07
2022-10-20T13:55:47.894Z,6.15
2022-10-20T13:58:41.216Z,4.65
2022-10-20T14:01:19.843Z,5.47
2022-10-20T14:03:49.068Z,6.45
2022-10-20T14:06:28.664Z,7.15
2022-10-20T14:09:03.580Z,7.68
2022-10-20T14:11:32.944Z,5.10
2022-10-20T14:14:04.756Z,6.18
2022-10-20T14:16:40.498Z,5.15
2022-10-20T14:19:12.463Z,4.30
2022-10-20T14:21:50.397Z,5.35
2022-10-20T14:24:30.220Z,5.00
2022-10-20T14:27:06.720Z,4.25
2022-10-20T14:29:38.641Z,4.18
2022-10-20T14:32:10.459Z,7.85
2022-10-20T14:34:53.596Z,4.40
2022-10-20T14:37:34.820Z,8.18
2022-10-20T14:40:06.617Z,4.47
2022-10-20T14:42:39.776Z,5.15
2022-10-20T14:45:09.609Z,7.07
2022-10-20T14:47:42.647Z,5.40
2022-10-20T14:50:23.776Z,8.13
2022-10-20T14:52:54.132Z,5.75
2022-10-20T14:55:35.992Z,4.32
2022-10-20T14:58:05.618Z,5.60
2022-10-20T15:00:36.272Z,6.00
2022-10-20T15:03:07.760Z,9.73
2022-10-20T15:05:46.420Z,8.90
2022-10-20T15:08:26.395Z,6.60
2022-10-20T15:13:35.321Z,5.15
2022-10-20T15:16:04.553Z,7.05
2022-10-20T15:18:40.189Z,7.30
2022-10-20T15:21:08.521Z,8.00
2022-10-20T15:23:38.860Z,6.47
2022-10-20T15:26:16.497Z,6.45
2022-10-20T15:28:50.865Z,7.90
2022-10-20T15:31:27.646Z,7.82
2022-10-20T15:33:56.844Z,12.43
2022-10-20T15:36:39.080Z,7.82
2022-10-20T15:39:35.876Z,7.00
2022-10-20T15:42:11.342Z,6.60
2022-10-20T15:44:39.910Z,6.50
2022-10-20T15:47:08.954Z,5.53
2022-10-20T15:49:40.158Z,5.80
2022-10-20T15:52:11.194Z,6.30
2022-10-20T15:54:41.532Z,8.18
2022-10-20T15:57:08.770Z,6.75
2022-10-20T15:59:36.136Z,8.30
2022-10-20T16:02:02.844Z,7.55
2022-10-20T16:04:31.995Z,7.20
2022-10-20T16:07:02.807Z,6.40
2022-10-20T16:09:30.695Z,9.63
2022-10-20T16:11:57.641Z,9.00
2022-10-20T16:14:25.767Z,7.63
2022-10-20T16:16:52.574Z,8.48
2022-10-20T16:19:19.633Z,6.88
2022-10-20T16:21:46.898Z,8.18
2022-10-20T16:24:14.268Z,5.00
2022-10-20T16:26:42.378Z,8.35
2022-10-20T16:29:12.454Z,9.35
2022-10-20T16:31:43.140Z,8.07
2022-10-20T16:34:12.191Z,10.32
2022-10-20T16:36:39.544Z,6.70
2022-10-20T16:39:09.376Z,8.40
2022-10-20T16:41:37.544Z,9.55
2022-10-20T16:44:06.807Z,8.35
2022-10-20T16:46:35.441Z,9.45
2022-10-20T16:49:10.317Z,8.05
2022-10-20T16:51:37.347Z,7.40
2022-10-20T16:54:10.498Z,10.10
2022-10-20T16:56:40.703Z,11.27
2022-10-20T16:59:08.365Z,13.57
2022-10-20T17:01:38.473Z,17.48
2022-10-20T17:04:12.387Z,13.38
2022-10-20T17:06:42.114Z,11.10
2022-10-20T17:09:09.818Z,12.15
2022-10-20T17:11:36.999Z,11.80
2022-10-20T17:14:07.504Z,16.30
2022-10-20T17:16:43.316Z,10.60
2022-10-20T17:19:18.082Z,14.05
2022-10-20T17:21:46.268Z,13.57
2022-10-20T17:24:17.297Z,9.80
2022-10-20T17:26:44.691Z,12.85
2022-10-20T17:29:11.738Z,11.70
2022-10-20T17:31:41.022Z,8.07
2022-10-20T17:34:16.802Z,10.23
2022-10-20T17:36:47.895Z,8.88
2022-10-20T17:39:17.404Z,10.98
2022-10-20T17:41:44.777Z,8.05
2022-10-20T17:44:13.407Z,15.73
2022-10-20T17:46:46.602Z,12.93
2022-10-20T17:49:14.475Z,13.30
2022-10-20T17:51:41.738Z,12.38
2022-10-20T17:54:09.803Z,9.60
2022-10-20T17:56:40.642Z,13.00
2022-10-20T18:01:41.537Z,12.98
2022-10-20T18:04:16.825Z,12.27
2022-10-20T18:06:48.979Z,14.45
2022-10-20T18:09:19.579Z,13.07
2022-10-20T18:11:59.302Z,11.82
2022-10-20T18:14:29.742Z,17.25
2022-10-20T18:16:58.757Z,11.00
2022-10-20T18:19:29.838Z,12.00
2022-10-20T18:22:02.365Z,9.45
2022-10-20T18:24:36.650Z,10.57
2022-10-20T18:27:07.681Z,11.52
2022-10-20T18:29:38.279Z,14.43
2022-10-20T18:32:13.504Z,10.82
2022-10-20T18:34:42.785Z,7.63
2022-10-20T18:37:20.537Z,7.47
2022-10-20T18:39:55.217Z,7.97
2022-10-20T18:42:30.934Z,13.77
2022-10-20T18:53:04.960Z,11.98
2022-10-20T18:55:40.806Z,11.48
2022-10-20T18:58:15.877Z,14.93
2022-10-20T19:00:53.065Z,18.25
2022-10-20T19:03:23.503Z,13.50
2022-10-20T19:11:06.279Z,12.18
2022-10-20T19:13:40.183Z,13.30
2022-10-20T19:24:24.117Z,15.80
2022-10-20T19:27:24.945Z,20.95
2022-10-20T19:29:50.215Z,19.25
2022-10-20T19:32:17.091Z,15.80
2022-10-20T19:34:44.092Z,18.13
2022-10-20T19:37:11.408Z,19.70
2022-10-20T19:39:40.503Z,11.90
2022-10-20T19:42:08.574Z,16.23
2022-10-20T19:44:41.164Z,18.17
2022-10-20T19:47:09.641Z,16.63
2022-10-20T19:49:40.315Z,20.33
2022-10-20T19:52:09.999Z,19.38
2022-10-20T19:55:06.994Z,17.58
2022-10-20T19:57:51.088Z,16.77
2022-10-20T20:03:27.557Z,21.98
2022-10-20T20:06:07.017Z,20.23
2022-10-20T20:11:33.939Z,23.52
2022-10-20T20:16:40.920Z,16.30
2022-10-20T20:19:08.362Z,18.83
2022-10-20T20:21:35.904Z,16.05
2022-10-20T20:24:06.709Z,19.55
2022-10-20T20:26:38.604Z,18.73
2022-10-20T20:29:17.142Z,28.65
2022-10-20T20:31:44.980Z,17.63
2022-10-20T20:34:13.843Z,15.73
2022-10-20T20:36:42.515Z,16.63
2022-10-20T20:39:10.174Z,23.50
2022-10-20T20:41:47.459Z,19.15
2022-10-20T20:44:14.649Z,20.98
2022-10-20T20:46:43.426Z,20.83
2022-10-20T20:49:10.257Z,18.80
2022-10-20T20:51:37.833Z,15.85
2022-10-20T20:54:05.891Z,16.35
2022-10-20T20:56:35.283Z,26.48
2022-10-20T20:59:08.451Z,19.23
2022-10-20T21:01:37.238Z,20.27
2022-10-20T21:04:07.499Z,21.50
2022-10-20T21:07:00.238Z,17.77
2022-10-20T21:09:22.680Z,20.63
2022-10-20T21:11:51.516Z,21.02
2022-10-20T21:14:20.020Z,20.70
2022-10-20T21:16:51.589Z,17.13
2022-10-20T21:19:33.092Z,21.02
2022-10-20T21:22:06.382Z,19.63
2022-10-20T21:24:36.960Z,21.30
2022-10-20T21:27:06.904Z,21.77
2022-10-20T21:29:36.110Z,15.13
2022-10-20T21:32:03.192Z,22.08
2022-10-20T21:34:31.463Z,17.52
2022-10-20T21:37:01.012Z,21.88
2022-10-20T21:42:15.037Z,21.05
2022-10-20T21:44:43.704Z,18.80
2022-10-20T21:47:11.109Z,18.10
2022-10-20T21:49:39.075Z,17.42
2022-10-20T21:52:08.135Z,19.10
2022-10-20T21:54:36.023Z,20.08
2022-10-20T21:57:04.556Z,16.40
2022-10-20T21:59:35.369Z,18.63
2022-10-20T22:02:02.371Z,19.75
2022-10-20T22:04:31.354Z,22.42
2022-10-20T22:07:00.655Z,16.88
2022-10-20T22:09:27.869Z,21.20
2022-10-20T22:11:57.577Z,19.85
2022-10-20T22:14:25.623Z,19.73
2022-10-20T22:16:53.781Z,18.08
2022-10-20T22:19:24.615Z,17.83
2022-10-20T22:21:54.822Z,21.58
2022-10-20T22:24:34.817Z,17.00
2022-10-20T22:27:01.721Z,18.63
2022-10-20T22:29:31.760Z,15.93
2022-10-20T22:32:02.519Z,20.10
2022-10-20T22:34:31.660Z,19.77
2022-10-20T22:36:58.705Z,15.18
2022-10-20T22:39:26.211Z,19.58
2022-10-20T22:41:56.224Z,23.45
2022-10-20T22:44:26.029Z,18.50
2022-10-20T22:46:52.987Z,22.90
2022-10-20T22:49:19.905Z,17.13
2022-10-20T22:51:46.764Z,14.20
2022-10-20T22:54:13.772Z,17.80
2022-10-20T22:56:40.662Z,19.35
2022-10-20T22:59:08.515Z,23.27
2022-10-20T23:01:35.835Z,19.38
2022-10-20T23:04:02.615Z,25.15
2022-10-20T23:06:30.773Z,22.33
2022-10-20T23:08:58.378Z,19.55
2022-10-20T23:11:26.631Z,21.88
2022-10-20T23:13:53.779Z,24.50
2022-10-20T23:18:52.455Z,20.50
2022-10-20T23:21:19.369Z,20.63
2022-10-20T23:23:51.368Z,21.98
2022-10-20T23:26:19.073Z,21.65
2022-10-20T23:28:46.026Z,26.73
2022-10-20T23:31:15.009Z,25.85
2022-10-20T23:33:46.048Z,21.60
2022-10-20T23:36:15.982Z,26.55
2022-10-20T23:38:46.512Z,21.38
2022-10-20T23:41:15.758Z,25.02
2022-10-20T23:43:44.004Z,23.98
2022-10-20T23:46:13.345Z,24.80
2022-10-20T23:48:41.966Z,22.90
2022-10-20T23:51:09.460Z,20.13
2022-10-20T23:53:37.399Z,22.58
2022-10-20T23:56:08.912Z,28.75
2022-10-20T23:58:38.744Z,21.13
